createdAt,value
2018-06-02T00:00:12.316Z,79.00
2018-06-02T00:02:40.958Z,78.70
2018-06-02T00:05:08.736Z,78.60
2018-06-02T00:07:36.499Z,78.40
2018-06-02T00:10:04.336Z,77.50
2018-06-02T00:12:32.097Z,78.00
2018-06-02T00:14:59.846Z,77.90
2018-06-02T00:17:27.609Z,78.20
2018-06-02T00:19:55.370Z,78.30
2018-06-02T00:22:23.277Z,78.30
2018-06-02T00:24:51.073Z,78.60
2018-06-02T00:27:18.908Z,78.70
2018-06-02T00:29:46.780Z,79.20
2018-06-02T00:32:14.642Z,79.00
2018-06-02T00:34:42.508Z,79.10
2018-06-02T00:37:10.304Z,79.30
2018-06-02T00:39:38.139Z,79.20
2018-06-02T00:42:05.934Z,80.10
2018-06-02T00:44:34.133Z,79.20
2018-06-02T00:47:03.324Z,79.40
2018-06-02T00:49:31.960Z,78.60
2018-06-02T00:51:59.828Z,78.60
2018-06-02T00:57:28.533Z,78.50
2018-06-02T00:59:57.348Z,78.40
2018-06-02T01:02:25.495Z,78.10
2018-06-02T01:04:53.771Z,78.80
2018-06-02T01:07:22.262Z,78.20
2018-06-02T01:09:50.116Z,78.00
2018-06-02T01:12:18.220Z,78.50
2018-06-02T01:14:46.668Z,77.80
2018-06-02T01:17:14.546Z,78.50
2018-06-02T01:19:42.405Z,77.90
2018-06-02T01:22:10.271Z,77.60
2018-06-02T01:24:38.138Z,77.60
2018-06-02T01:27:05.905Z,76.80
2018-06-02T01:29:33.692Z,78.00
2018-06-02T01:32:01.535Z,77.00
2018-06-02T01:34:29.324Z,77.30
2018-06-02T01:36:57.265Z,76.70
2018-06-02T01:39:25.137Z,76.20
2018-06-02T01:41:52.926Z,76.30
2018-06-02T01:44:20.866Z,76.00
2018-06-02T01:46:48.656Z,77.00
2018-06-02T01:49:16.568Z,77.00
2018-06-02T01:51:44.465Z,76.70
2018-06-02T01:54:12.639Z,76.50
2018-06-02T01:56:40.507Z,76.40
2018-06-02T01:59:08.373Z,76.30
2018-06-02T02:01:36.167Z,76.10
2018-06-02T02:04:04.106Z,76.40
2018-06-02T02:06:31.972Z,76.30
2018-06-02T02:08:59.845Z,76.30
2018-06-02T02:11:28.524Z,76.20
2018-06-02T02:13:56.316Z,76.20
2018-06-02T02:16:24.159Z,76.40
2018-06-02T02:18:52.025Z,75.90
2018-06-02T02:21:19.889Z,75.90
2018-06-02T02:23:47.681Z,76.50
2018-06-02T02:26:15.826Z,74.90
2018-06-02T02:28:43.729Z,74.90
2018-06-02T02:31:12.379Z,75.20
2018-06-02T02:33:40.172Z,75.20
2018-06-02T02:36:08.010Z,74.70
2018-06-02T02:38:35.876Z,75.20
2018-06-02T02:41:03.744Z,74.10
2018-06-02T02:43:31.610Z,75.10
2018-06-02T02:45:59.403Z,74.80
2018-06-02T02:48:27.164Z,75.50
2018-06-02T02:50:55.107Z,73.50
2018-06-02T02:53:22.974Z,74.90
2018-06-02T02:55:50.942Z,74.20
2018-06-02T02:58:18.809Z,75.20
2018-06-02T03:00:46.646Z,74.70
2018-06-02T03:03:14.543Z,74.90
2018-06-02T03:05:42.409Z,73.70
2018-06-02T03:08:10.378Z,73.70
2018-06-02T03:10:38.244Z,74.90
2018-06-02T03:13:06.111Z,74.90
2018-06-02T03:15:33.978Z,73.90
2018-06-02T03:18:01.948Z,74.60
2018-06-02T03:20:32.298Z,73.90
2018-06-02T03:23:03.562Z,74.40
2018-06-02T03:25:33.882Z,73.70
2018-06-02T03:28:02.453Z,73.50
2018-06-02T03:30:30.394Z,73.40
2018-06-02T03:32:58.184Z,73.60
2018-06-02T03:35:26.024Z,73.40
2018-06-02T03:37:53.816Z,73.20
2018-06-02T03:40:21.655Z,73.20
2018-06-02T03:42:49.521Z,73.20
2018-06-02T03:45:17.389Z,72.10
2018-06-02T03:47:45.181Z,72.50
2018-06-02T03:50:13.764Z,71.70
2018-06-02T03:52:42.421Z,74.00
2018-06-02T03:55:10.212Z,73.50
2018-06-02T03:57:38.157Z,73.40
2018-06-02T04:00:06.048Z,73.00
2018-06-02T04:02:33.893Z,72.90
2018-06-02T04:05:01.764Z,73.60
2018-06-02T04:07:29.620Z,73.30
2018-06-02T04:09:57.492Z,72.60
2018-06-02T04:12:25.354Z,73.40
2018-06-02T04:14:53.221Z,71.80
2018-06-02T04:17:20.987Z,72.00
2018-06-02T04:19:48.957Z,72.60
2018-06-02T04:22:16.926Z,73.10
2018-06-02T04:24:44.791Z,71.60
2018-06-02T04:27:12.657Z,71.80
2018-06-02T04:29:40.524Z,72.10
2018-06-02T04:32:08.319Z,72.20
2018-06-02T04:34:36.156Z,72.70
2018-06-02T04:37:04.022Z,70.90
2018-06-02T04:39:31.817Z,72.50
2018-06-02T04:41:59.757Z,69.70
2018-06-02T04:44:27.622Z,69.60
2018-06-02T04:46:55.487Z,69.20
2018-06-02T04:49:23.354Z,69.50
2018-06-02T04:51:51.145Z,69.50
2018-06-02T04:54:19.012Z,69.50
2018-06-02T04:56:46.779Z,68.30
2018-06-02T04:59:15.435Z,69.30
2018-06-02T05:01:43.301Z,68.80
2018-06-02T05:04:11.168Z,67.70
2018-06-02T05:06:38.999Z,67.60
2018-06-02T05:09:06.901Z,68.00
2018-06-02T05:11:34.870Z,68.20
2018-06-02T05:14:02.941Z,67.30
2018-06-02T05:16:30.733Z,67.40
2018-06-02T05:18:58.674Z,67.20
2018-06-02T05:21:26.541Z,66.30
2018-06-02T05:23:54.335Z,66.70
2018-06-02T05:26:22.172Z,65.80
2018-06-02T05:28:50.042Z,65.80
2018-06-02T05:31:17.906Z,64.90
2018-06-02T05:33:45.772Z,65.20
2018-06-02T05:36:13.564Z,64.40
2018-06-02T05:38:42.221Z,64.00
2018-06-02T05:41:10.088Z,64.10
2018-06-02T05:43:37.955Z,63.80
2018-06-02T05:46:05.823Z,63.10
2018-06-02T05:48:33.688Z,63.10
2018-06-02T05:51:01.512Z,62.60
2018-06-02T05:53:29.421Z,62.90
2018-06-02T05:55:57.288Z,63.40
2018-06-02T05:58:25.156Z,63.20
2018-06-02T06:00:53.021Z,62.50
2018-06-02T06:03:20.887Z,62.60
2018-06-02T06:05:48.754Z,63.00
2018-06-02T06:08:16.624Z,62.30
2018-06-02T06:10:44.412Z,62.10
2018-06-02T06:13:12.353Z,60.70
2018-06-02T06:15:40.220Z,61.50
2018-06-02T06:18:08.088Z,61.30
2018-06-02T06:20:35.954Z,61.00
2018-06-02T06:23:03.827Z,62.00
2018-06-02T06:25:31.612Z,62.30
2018-06-02T06:28:00.270Z,63.20
2018-06-02T06:30:28.137Z,63.20
2018-06-02T06:32:55.948Z,62.50
2018-06-02T06:35:23.973Z,61.50
2018-06-02T06:37:51.764Z,62.00
2018-06-02T06:40:19.604Z,63.00
2018-06-02T06:42:47.471Z,62.10
2018-06-02T06:45:15.337Z,62.10
2018-06-02T06:47:43.204Z,61.20
2018-06-02T06:50:11.176Z,61.80
2018-06-02T06:52:39.040Z,61.80
2018-06-02T06:55:06.906Z,61.90
2018-06-02T06:57:34.777Z,61.50
2018-06-02T07:00:02.643Z,61.60
2018-06-02T07:02:30.506Z,60.40
2018-06-02T07:04:58.300Z,60.50
2018-06-02T07:07:26.239Z,59.90
2018-06-02T07:09:54.106Z,59.90
2018-06-02T07:12:21.871Z,58.40
2018-06-02T07:14:49.736Z,58.20
2018-06-02T07:17:17.607Z,58.50
2018-06-02T07:19:45.469Z,58.20
2018-06-02T07:22:13.260Z,58.10
2018-06-02T07:24:41.024Z,57.80
2018-06-02T07:27:08.866Z,56.30
2018-06-02T07:29:36.731Z,56.30
2018-06-02T07:32:04.599Z,55.60
2018-06-02T07:34:32.465Z,56.50
2018-06-02T07:37:00.331Z,56.20
2018-06-02T07:39:28.199Z,55.20
2018-06-02T07:41:55.988Z,56.90
2018-06-02T07:44:23.924Z,56.50
2018-06-02T07:46:51.798Z,57.80
2018-06-02T07:49:19.590Z,57.30
2018-06-02T07:51:47.531Z,58.30
2018-06-02T07:54:15.398Z,58.00
2018-06-02T07:56:43.190Z,58.80
2018-06-02T07:59:11.233Z,59.60
2018-06-02T08:01:39.101Z,58.40
2018-06-02T08:04:06.966Z,59.10
2018-06-02T08:06:34.793Z,59.30
2018-06-02T08:09:02.700Z,59.70
2018-06-02T08:11:30.566Z,59.40
2018-06-02T08:13:58.357Z,60.90
2018-06-02T08:16:26.117Z,61.30
2018-06-02T08:18:53.875Z,59.70
2018-06-02T08:21:21.620Z,60.60
2018-06-02T08:23:49.368Z,60.80
2018-06-02T08:26:17.114Z,61.30
2018-06-02T08:28:44.892Z,60.90
2018-06-02T08:31:12.648Z,62.30
2018-06-02T08:33:40.452Z,61.50
2018-06-02T08:36:08.211Z,61.60
2018-06-02T08:38:35.966Z,61.70
2018-06-02T08:41:03.730Z,60.00
2018-06-02T08:43:31.487Z,59.60
2018-06-02T08:45:59.245Z,59.50
2018-06-02T08:48:27.002Z,58.10
2018-06-02T08:50:54.772Z,58.20
2018-06-02T08:53:22.529Z,57.10
2018-06-02T08:55:50.289Z,57.00
2018-06-02T08:58:18.493Z,56.10
2018-06-02T09:00:46.237Z,56.30
2018-06-02T09:03:13.991Z,55.50
2018-06-02T09:05:41.753Z,55.70
2018-06-02T09:08:09.517Z,56.30
2018-06-02T09:10:37.268Z,54.50
2018-06-02T09:13:05.791Z,54.80
2018-06-02T09:15:33.585Z,54.80
2018-06-02T09:18:01.346Z,54.10
2018-06-02T09:20:29.101Z,52.70
2018-06-02T09:22:56.877Z,51.60
2018-06-02T09:25:24.654Z,50.90
2018-06-02T09:27:53.309Z,48.80
2018-06-02T09:30:21.992Z,48.10
2018-06-02T09:32:49.856Z,48.00
2018-06-02T09:35:17.765Z,47.60
2018-06-02T09:37:46.409Z,45.50
2018-06-02T09:40:14.276Z,45.40
2018-06-02T09:42:42.246Z,45.60
2018-06-02T09:45:10.111Z,42.70
2018-06-02T09:47:37.906Z,42.40
2018-06-02T09:50:05.845Z,40.10
2018-06-02T09:52:33.794Z,40.90
2018-06-02T09:55:01.680Z,41.70
2018-06-02T09:57:29.446Z,41.60
2018-06-02T09:59:57.413Z,41.40
2018-06-02T10:02:25.280Z,40.10
2018-06-02T10:04:53.250Z,37.40
2018-06-02T10:07:21.321Z,38.10
2018-06-02T10:09:49.119Z,36.30
2018-06-02T10:12:16.981Z,37.60
2018-06-02T10:14:44.920Z,37.40
2018-06-02T10:17:12.684Z,35.50
2018-06-02T10:19:40.476Z,36.10
2018-06-02T10:22:08.346Z,37.20
2018-06-02T10:24:36.284Z,37.90
2018-06-02T10:27:04.151Z,39.20
2018-06-02T10:29:32.046Z,40.20
2018-06-02T10:31:59.985Z,41.10
2018-06-02T10:34:27.759Z,42.20
2018-06-02T10:36:55.617Z,42.30
2018-06-02T10:39:23.408Z,42.00
2018-06-02T10:41:51.350Z,43.30
2018-06-02T10:44:19.224Z,42.90
2018-06-02T10:46:47.186Z,42.30
2018-06-02T10:49:14.978Z,44.10
2018-06-02T10:51:42.844Z,43.00
2018-06-02T10:54:10.689Z,44.10
2018-06-02T10:56:38.550Z,43.20
2018-06-02T10:59:06.417Z,43.10
2018-06-02T11:01:34.320Z,43.80
2018-06-02T11:04:02.969Z,45.00
2018-06-02T11:06:30.762Z,45.00
2018-06-02T11:08:58.753Z,45.60
2018-06-02T11:11:27.389Z,44.40
2018-06-02T11:13:55.357Z,44.40
2018-06-02T11:16:23.224Z,45.20
2018-06-02T11:18:51.090Z,46.30
2018-06-02T11:21:18.960Z,46.60
2018-06-02T11:23:46.824Z,46.00
2018-06-02T11:26:14.690Z,46.50
2018-06-02T11:28:42.506Z,47.00
2018-06-02T11:31:11.141Z,47.80
2018-06-02T11:33:39.008Z,47.90
2018-06-02T11:36:06.875Z,47.00
2018-06-02T11:38:34.664Z,47.80
2018-06-02T11:41:03.250Z,46.50
2018-06-02T11:43:32.624Z,46.10
2018-06-02T11:46:00.491Z,46.10
2018-06-02T11:48:28.357Z,46.50
2018-06-02T11:50:56.151Z,46.60
2018-06-02T11:53:25.524Z,47.40
2018-06-02T11:55:53.390Z,47.40
2018-06-02T11:58:21.257Z,47.50
2018-06-02T12:00:49.125Z,47.10
2018-06-02T12:03:16.994Z,46.90
2018-06-02T12:05:44.786Z,45.90
2018-06-02T12:08:12.724Z,46.20
2018-06-02T12:10:40.590Z,46.80
2018-06-02T12:13:08.457Z,47.40
2018-06-02T12:15:36.426Z,47.90
2018-06-02T12:18:04.391Z,47.80
2018-06-02T12:20:32.296Z,48.60
2018-06-02T12:23:00.916Z,47.60
2018-06-02T12:25:28.815Z,47.60
2018-06-02T12:27:56.682Z,47.90
2018-06-02T12:30:24.650Z,46.00
2018-06-02T12:32:52.521Z,47.20
2018-06-02T12:35:20.382Z,47.70
2018-06-02T12:37:48.251Z,47.70
2018-06-02T12:40:16.135Z,47.50
2018-06-02T12:42:44.804Z,46.50
2018-06-02T12:45:12.671Z,46.50
2018-06-02T12:47:41.283Z,47.30
2018-06-02T12:50:09.938Z,47.60
2018-06-02T12:52:38.021Z,47.40
2018-06-02T12:55:05.853Z,47.60
2018-06-02T12:57:34.267Z,47.40
2018-06-02T13:00:02.014Z,47.10
2018-06-02T13:02:30.197Z,46.30
2018-06-02T13:04:58.649Z,48.30
2018-06-02T13:07:26.401Z,47.50
2018-06-02T13:09:54.213Z,48.10
2018-06-02T13:12:22.657Z,49.40
2018-06-02T13:14:50.436Z,48.30
2018-06-02T13:17:18.729Z,49.30
2018-06-02T13:19:46.920Z,48.90
2018-06-02T13:22:14.681Z,49.50
2018-06-02T13:24:42.437Z,48.80
2018-06-02T13:27:10.200Z,49.00
2018-06-02T13:29:38.091Z,49.20
2018-06-02T13:32:05.856Z,48.50
2018-06-02T13:34:34.378Z,49.70
2018-06-02T13:37:02.141Z,49.60
2018-06-02T13:39:29.896Z,49.70
2018-06-02T13:41:57.724Z,49.80
2018-06-02T13:44:26.025Z,50.60
2018-06-02T13:46:54.622Z,50.50
2018-06-02T13:49:22.454Z,50.50
2018-06-02T13:51:51.827Z,50.40
2018-06-02T13:54:19.693Z,50.50
2018-06-02T13:56:47.662Z,49.50
2018-06-02T13:59:15.453Z,50.50
2018-06-02T14:01:44.140Z,50.80
2018-06-02T14:04:12.797Z,51.10
2018-06-02T14:06:40.645Z,51.60
2018-06-02T14:09:08.409Z,51.10
2018-06-02T14:11:36.173Z,51.50
2018-06-02T14:14:04.161Z,51.60
2018-06-02T14:16:31.925Z,51.70
2018-06-02T14:18:59.792Z,51.70
2018-06-02T14:21:27.660Z,52.10
2018-06-02T14:23:55.524Z,52.50
2018-06-02T14:26:23.287Z,53.10
2018-06-02T14:28:51.736Z,53.50
2018-06-02T14:31:19.504Z,54.10
2018-06-02T14:33:47.273Z,54.60
2018-06-02T14:36:15.630Z,54.40
2018-06-02T14:38:44.157Z,55.00
2018-06-02T14:41:11.960Z,55.00
2018-06-02T14:43:40.690Z,56.60
2018-06-02T14:46:08.462Z,56.60
2018-06-02T14:48:36.217Z,56.30
2018-06-02T14:51:03.988Z,56.70
2018-06-02T14:53:31.796Z,56.60
2018-06-02T14:55:59.550Z,57.00
2018-06-02T14:58:27.325Z,56.60
2018-06-02T15:00:55.295Z,56.50
2018-06-02T15:03:23.235Z,55.90
2018-06-02T15:05:51.332Z,56.10
2018-06-02T15:08:19.085Z,55.70
2018-06-02T15:10:46.969Z,54.40
2018-06-02T15:13:15.592Z,53.60
2018-06-02T15:15:43.341Z,53.60
2018-06-02T15:18:11.866Z,52.30
2018-06-02T15:20:39.618Z,52.30
2018-06-02T15:23:07.881Z,51.80
2018-06-02T15:25:35.641Z,51.20
2018-06-02T15:28:03.622Z,51.90
2018-06-02T15:30:31.611Z,52.40
2018-06-02T15:32:59.477Z,52.40
2018-06-02T15:35:27.270Z,53.10
2018-06-02T15:37:55.106Z,53.30
2018-06-02T15:40:22.974Z,54.10
2018-06-02T15:42:50.737Z,54.50
2018-06-02T15:45:18.505Z,54.90
2018-06-02T15:47:46.260Z,55.30
2018-06-02T15:50:14.014Z,55.10
2018-06-02T15:52:41.774Z,55.10
2018-06-02T15:55:09.662Z,55.30
2018-06-02T15:57:37.664Z,55.10
2018-06-02T16:00:06.271Z,55.30
2018-06-02T16:02:34.035Z,55.20
2018-06-02T16:05:01.797Z,55.70
2018-06-02T16:07:29.554Z,55.00
2018-06-02T16:09:58.192Z,55.30
2018-06-02T16:12:26.061Z,55.20
2018-06-02T16:14:53.926Z,55.00
2018-06-02T16:17:21.717Z,55.30
2018-06-02T16:19:49.658Z,55.60
2018-06-02T16:22:17.525Z,55.90
2018-06-02T16:24:45.392Z,56.20
2018-06-02T16:27:13.184Z,56.10
2018-06-02T16:29:41.125Z,56.00
2018-06-02T16:32:09.829Z,57.00
2018-06-02T16:34:37.677Z,57.00
2018-06-02T16:37:05.546Z,57.30
2018-06-02T16:39:33.411Z,57.30
2018-06-02T16:42:01.282Z,57.20
2018-06-02T16:44:29.067Z,57.80
2018-06-02T16:46:56.883Z,57.90
2018-06-02T16:49:24.774Z,58.20
2018-06-02T16:51:52.597Z,58.70
2018-06-02T16:54:20.435Z,58.90
2018-06-02T16:56:48.196Z,59.50
2018-06-02T16:59:15.961Z,59.30
2018-06-02T17:01:43.902Z,59.30
2018-06-02T17:04:11.769Z,59.20
2018-06-02T17:06:39.638Z,59.50
2018-06-02T17:09:07.427Z,60.10
2018-06-02T17:11:35.196Z,59.50
2018-06-02T17:14:03.152Z,59.60
2018-06-02T17:16:31.004Z,60.10
2018-06-02T17:18:58.867Z,59.70
2018-06-02T17:21:26.734Z,60.20
2018-06-02T17:23:54.599Z,60.80
2018-06-02T17:26:22.469Z,60.70
2018-06-02T17:28:50.306Z,59.90
2018-06-02T17:31:18.209Z,60.20
2018-06-02T17:33:46.989Z,61.00
2018-06-02T17:36:14.856Z,61.00
2018-06-02T17:38:42.723Z,61.00
2018-06-02T17:41:10.543Z,60.10
2018-06-02T17:43:38.454Z,60.20
2018-06-02T17:46:06.215Z,60.80
2018-06-02T17:48:34.084Z,61.40
2018-06-02T17:51:01.951Z,61.30
2018-06-02T17:53:29.818Z,61.00
2018-06-02T17:55:57.685Z,60.80
2018-06-02T17:58:25.551Z,61.00
2018-06-02T18:00:53.418Z,61.40
2018-06-02T18:03:21.284Z,60.70
2018-06-02T18:05:49.151Z,58.90
2018-06-02T18:08:16.949Z,58.50
2018-06-02T18:10:45.601Z,56.50
2018-06-02T18:13:13.468Z,56.40
2018-06-02T18:15:41.335Z,57.90
2018-06-02T18:18:09.201Z,57.30
2018-06-02T18:20:37.068Z,56.90
2018-06-02T18:23:05.038Z,56.50
2018-06-02T18:25:33.006Z,57.90
2018-06-02T18:28:00.796Z,56.80
2018-06-02T18:30:28.636Z,58.20
2018-06-02T18:32:56.503Z,57.60
2018-06-02T18:35:24.248Z,60.30
2018-06-02T18:37:52.135Z,57.70
2018-06-02T18:40:20.000Z,57.50
2018-06-02T18:42:47.866Z,58.20
2018-06-02T18:45:15.733Z,58.50
2018-06-02T18:47:43.703Z,59.30
2018-06-02T18:50:11.569Z,58.50
2018-06-02T18:52:39.505Z,57.50
2018-06-02T18:55:07.405Z,58.70
2018-06-02T18:57:35.274Z,58.00
2018-06-02T19:00:03.165Z,57.30
2018-06-02T19:02:31.005Z,57.60
2018-06-02T19:04:58.797Z,57.30
2018-06-02T19:07:26.765Z,57.30
2018-06-02T19:09:55.348Z,58.80
2018-06-02T19:12:23.295Z,58.80
2018-06-02T19:14:51.084Z,57.80
2018-06-02T19:17:19.127Z,58.20
2018-06-02T19:19:46.884Z,58.20
2018-06-02T19:22:14.680Z,57.80
2018-06-02T19:24:42.520Z,59.00
2018-06-02T19:27:10.312Z,60.40
2018-06-02T19:29:38.180Z,58.70
2018-06-02T19:32:06.122Z,58.40
2018-06-02T19:34:33.912Z,57.90
2018-06-02T19:37:02.674Z,58.10
2018-06-02T19:39:30.540Z,58.10
2018-06-02T19:41:58.309Z,57.50
2018-06-02T19:44:26.171Z,58.10
2018-06-02T19:46:54.037Z,57.20
2018-06-02T19:49:21.829Z,58.90
2018-06-02T19:51:49.771Z,59.00
2018-06-02T19:54:17.637Z,57.30
2018-06-02T19:56:45.503Z,57.40
2018-06-02T19:59:13.370Z,57.70
2018-06-02T20:01:41.241Z,57.70
2018-06-02T20:04:09.028Z,57.30
2018-06-02T20:06:37.689Z,55.90
2018-06-02T20:09:05.659Z,55.90
2018-06-02T20:11:33.601Z,56.10
2018-06-02T20:14:01.493Z,55.60
2018-06-02T20:16:29.359Z,55.00
2018-06-02T20:18:57.225Z,56.70
2018-06-02T20:21:25.018Z,55.50
2018-06-02T20:23:53.675Z,55.40
2018-06-02T20:26:21.539Z,55.30
2018-06-02T20:28:49.411Z,56.70
2018-06-02T20:31:17.276Z,55.40
2018-06-02T20:33:45.069Z,56.70
2018-06-02T20:36:13.079Z,56.20
2018-06-02T20:38:41.694Z,56.00
2018-06-02T20:41:09.561Z,56.00
2018-06-02T20:43:37.430Z,55.80
2018-06-02T20:46:05.397Z,56.40
2018-06-02T20:48:33.263Z,55.90
2018-06-02T20:51:01.130Z,55.80
2018-06-02T20:53:29.025Z,57.10
2018-06-02T20:55:56.865Z,56.90
2018-06-02T20:58:24.730Z,57.40
2018-06-02T21:00:52.596Z,57.40
2018-06-02T21:03:20.463Z,56.80
2018-06-02T21:05:48.283Z,57.40
2018-06-02T21:08:16.912Z,57.90
2018-06-02T21:10:44.779Z,57.90
2018-06-02T21:13:12.646Z,57.30
2018-06-02T21:15:40.512Z,57.10
2018-06-02T21:18:08.303Z,56.60
2018-06-02T21:20:36.068Z,57.40
2018-06-02T21:23:03.832Z,56.80
2018-06-02T21:25:32.490Z,57.40
2018-06-02T21:28:00.357Z,57.40
2018-06-02T21:30:28.148Z,57.30
2018-06-02T21:32:56.091Z,58.00
2018-06-02T21:35:23.958Z,57.30
2018-06-02T21:37:51.748Z,58.00
2018-06-02T21:40:19.690Z,57.10
2018-06-02T21:42:47.557Z,58.10
2018-06-02T21:45:15.524Z,58.70
2018-06-02T21:47:43.392Z,58.10
2018-06-02T21:50:11.259Z,58.40
2018-06-02T21:52:39.243Z,58.30
2018-06-02T21:55:07.198Z,58.20
2018-06-02T21:57:35.068Z,58.00
2018-06-02T22:00:03.034Z,57.80
2018-06-02T22:02:31.002Z,59.40
2018-06-02T22:04:58.971Z,58.20
2018-06-02T22:07:26.869Z,58.70
2018-06-02T22:09:54.806Z,58.50
2018-06-02T22:12:22.775Z,58.90
2018-06-02T22:14:50.746Z,58.70
2018-06-02T22:17:18.591Z,58.40
2018-06-02T22:19:46.338Z,58.20
2018-06-02T22:22:14.093Z,58.50
2018-06-02T22:24:42.615Z,59.60
2018-06-02T22:27:10.412Z,59.50
2018-06-02T22:29:38.152Z,59.20
2018-06-02T22:32:06.027Z,60.00
2018-06-02T22:34:33.845Z,58.70
2018-06-02T22:37:01.603Z,59.10
2018-06-02T22:39:29.351Z,59.30
2018-06-02T22:41:57.864Z,60.30
2018-06-02T22:44:25.658Z,60.20
2018-06-02T22:46:53.413Z,58.50
2018-06-02T22:49:21.165Z,59.20
2018-06-02T22:51:58.652Z,58.50
2018-06-02T22:54:26.501Z,59.80
2018-06-02T22:56:54.321Z,61.80
2018-06-02T22:59:22.194Z,59.10
2018-06-02T23:01:49.993Z,60.00
2018-06-02T23:04:18.008Z,62.90
2018-06-02T23:06:45.978Z,60.90
2018-06-02T23:09:13.725Z,61.00
2018-06-02T23:11:41.486Z,60.60
2018-06-02T23:14:09.234Z,61.60
2018-06-02T23:16:36.984Z,61.70
2018-06-02T23:19:05.497Z,61.40
2018-06-02T23:21:33.249Z,61.30
2018-06-02T23:24:00.993Z,59.40
2018-06-02T23:26:29.514Z,58.70
2018-06-02T23:28:57.256Z,58.70
2018-06-02T23:31:25.002Z,60.30
2018-06-02T23:33:53.535Z,62.50
2018-06-02T23:36:21.291Z,62.50
2018-06-02T23:38:49.055Z,59.50
2018-06-02T23:41:16.805Z,58.80
2018-06-02T23:43:44.576Z,62.50
2018-06-02T23:46:12.343Z,61.60
2018-06-02T23:48:40.089Z,59.40
2018-06-02T23:51:07.841Z,61.00
2018-06-02T23:53:35.596Z,61.80
2018-06-02T23:56:04.116Z,61.00
2018-06-02T23:58:31.867Z,61.00
